createdAt,value
2023-04-15T00:00:26.061Z,5.63
2023-04-15T00:03:28.693Z,6.70
2023-04-15T00:06:31.054Z,6.38
2023-04-15T00:09:32.440Z,6.55
2023-04-15T00:12:33.835Z,6.60
2023-04-15T00:15:35.242Z,7.20
2023-04-15T00:18:38.341Z,5.17
2023-04-15T00:21:39.833Z,6.95
2023-04-15T00:24:42.934Z,5.83
2023-04-15T00:27:44.398Z,6.43
2023-04-15T00:30:46.102Z,7.40
2023-04-15T00:33:48.691Z,6.20
2023-04-15T00:36:52.520Z,6.45
2023-04-15T00:39:54.378Z,7.50
2023-04-15T00:42:55.846Z,6.63
2023-04-15T00:45:59.537Z,7.43
2023-04-15T00:49:02.822Z,7.03
2023-04-15T00:52:04.628Z,6.43
2023-04-15T00:55:06.999Z,5.55
2023-04-15T00:58:08.606Z,6.45
2023-04-15T01:01:11.337Z,12.83
2023-04-15T01:04:13.128Z,7.28
2023-04-15T01:07:14.876Z,7.63
2023-04-15T01:10:16.345Z,5.05
2023-04-15T01:13:19.159Z,6.93
2023-04-15T01:16:21.225Z,7.43
2023-04-15T01:19:22.683Z,6.20
2023-04-15T01:22:27.802Z,6.87
2023-04-15T01:25:33.626Z,7.38
2023-04-15T01:28:36.239Z,8.05
2023-04-15T01:31:39.352Z,7.82
2023-04-15T01:34:40.773Z,6.57
2023-04-15T01:37:42.663Z,6.40
2023-04-15T01:40:44.874Z,6.32
2023-04-15T01:43:46.307Z,7.05
2023-04-15T01:46:48.296Z,6.90
2023-04-15T01:49:49.738Z,6.72
2023-04-15T01:52:51.177Z,6.13
2023-04-15T01:55:53.176Z,7.50
2023-04-15T01:58:54.657Z,7.63
2023-04-15T02:01:56.341Z,7.43
2023-04-15T02:04:57.973Z,6.73
2023-04-15T02:07:59.391Z,7.13
2023-04-15T02:11:01.230Z,6.17
2023-04-15T02:14:06.808Z,6.43
2023-04-15T02:17:08.351Z,9.57
2023-04-15T02:20:10.664Z,7.15
2023-04-15T02:23:12.177Z,6.97
2023-04-15T02:26:14.008Z,7.57
2023-04-15T02:29:15.514Z,7.10
2023-04-15T02:32:17.188Z,6.57
2023-04-15T02:35:21.741Z,5.82
2023-04-15T02:38:23.209Z,5.75
2023-04-15T02:41:27.651Z,6.20
2023-04-15T02:44:29.365Z,5.78
2023-04-15T02:47:35.897Z,5.70
2023-04-15T02:50:40.659Z,5.78
2023-04-15T02:53:43.670Z,5.13
2023-04-15T02:56:45.426Z,5.00
2023-04-15T02:59:46.908Z,5.60
2023-04-15T03:02:52.217Z,5.95
2023-04-15T03:05:54.269Z,5.53
2023-04-15T03:08:56.885Z,4.60
2023-04-15T03:11:58.577Z,5.50
2023-04-15T03:15:01.995Z,6.20
2023-04-15T03:18:09.808Z,6.82
2023-04-15T03:21:11.267Z,7.43
2023-04-15T03:24:14.115Z,4.93
2023-04-15T03:27:15.554Z,6.00
2023-04-15T03:30:18.004Z,5.45
2023-04-15T03:33:20.406Z,4.22
2023-04-15T03:36:21.826Z,5.70
2023-04-15T03:39:23.278Z,5.35
2023-04-15T03:42:24.697Z,8.73
2023-04-15T03:45:26.095Z,11.63
2023-04-15T03:48:27.504Z,8.23
2023-04-15T03:51:28.927Z,6.30
2023-04-15T03:54:30.415Z,7.67
2023-04-15T03:57:31.847Z,8.47
2023-04-15T04:00:33.271Z,6.53
2023-04-15T04:03:34.791Z,7.53
2023-04-15T04:06:36.472Z,8.37
2023-04-15T04:09:40.526Z,8.17
2023-04-15T04:12:42.024Z,9.55
2023-04-15T04:15:43.481Z,6.77
2023-04-15T04:18:45.053Z,11.83
2023-04-15T04:21:46.526Z,6.50
2023-04-15T04:24:47.942Z,7.40
2023-04-15T04:27:49.373Z,7.53
2023-04-15T04:30:50.997Z,6.55
2023-04-15T04:33:52.445Z,6.35
2023-04-15T04:36:53.879Z,6.10
2023-04-15T04:39:55.423Z,5.90
2023-04-15T04:42:56.957Z,6.83
2023-04-15T04:45:58.375Z,8.10
2023-04-15T04:48:59.807Z,5.33
2023-04-15T04:52:01.562Z,5.07
2023-04-15T04:55:03.456Z,7.45
2023-04-15T04:58:04.879Z,6.05
2023-04-15T05:01:06.337Z,5.33
2023-04-15T05:04:07.944Z,6.47
2023-04-15T05:07:09.525Z,5.88
2023-04-15T05:10:11.412Z,5.77
2023-04-15T05:13:12.978Z,6.00
2023-04-15T05:16:14.445Z,7.83
2023-04-15T05:19:15.924Z,4.80
2023-04-15T05:22:17.406Z,4.90
2023-04-15T05:25:18.879Z,6.27
2023-04-15T05:28:20.400Z,5.60
2023-04-15T05:31:21.829Z,6.17
2023-04-15T05:34:23.277Z,8.32
2023-04-15T05:37:24.806Z,5.63
2023-04-15T05:40:26.608Z,6.13
2023-04-15T05:43:28.033Z,6.18
2023-04-15T05:46:29.472Z,6.25
2023-04-15T05:49:31.015Z,7.10
2023-04-15T05:52:32.536Z,6.80
2023-04-15T05:55:34.082Z,7.50
2023-04-15T05:58:35.731Z,6.07
2023-04-15T06:01:37.263Z,6.20
2023-04-15T06:04:39.461Z,8.90
2023-04-15T06:07:41.148Z,6.93
2023-04-15T06:10:42.664Z,5.53
2023-04-15T06:13:44.104Z,5.37
2023-04-15T06:16:45.585Z,6.20
2023-04-15T06:19:46.991Z,6.20
2023-04-15T06:22:48.406Z,6.47
2023-04-15T06:25:49.833Z,10.30
2023-04-15T06:28:51.293Z,7.83
2023-04-15T06:31:52.812Z,10.50
2023-04-15T06:34:54.440Z,9.57
2023-04-15T06:37:56.710Z,14.10
2023-04-15T06:40:58.181Z,9.05
2023-04-15T06:43:59.813Z,8.18
2023-04-15T06:47:01.272Z,11.02
2023-04-15T06:50:04.029Z,6.43
2023-04-15T06:53:05.752Z,7.13
2023-04-15T06:56:09.368Z,9.32
2023-04-15T06:59:10.898Z,5.80
2023-04-15T07:02:14.349Z,7.30
2023-04-15T07:05:16.270Z,9.93
2023-04-15T07:08:17.695Z,8.05
2023-04-15T07:11:19.897Z,8.30
2023-04-15T07:14:21.426Z,7.20
2023-04-15T07:17:22.875Z,7.13
2023-04-15T07:20:24.314Z,8.67
2023-04-15T07:23:25.745Z,9.80
2023-04-15T07:26:27.168Z,6.50
2023-04-15T07:29:28.605Z,8.93
2023-04-15T07:32:30.069Z,8.07
2023-04-15T07:35:31.659Z,9.47
2023-04-15T07:38:33.135Z,8.10
2023-04-15T07:41:34.703Z,9.37
2023-04-15T07:44:36.244Z,6.80
2023-04-15T07:47:37.690Z,8.70
2023-04-15T07:50:39.342Z,6.47
2023-04-15T07:53:40.858Z,8.55
2023-04-15T07:56:42.314Z,6.87
2023-04-15T07:59:43.792Z,7.57
2023-04-15T08:02:46.896Z,6.80
2023-04-15T08:05:48.558Z,8.38
2023-04-15T08:08:50.173Z,8.98
2023-04-15T08:11:51.588Z,6.47
2023-04-15T08:14:53.080Z,6.72
2023-04-15T08:17:54.874Z,7.10
2023-04-15T08:20:56.280Z,7.18
2023-04-15T08:23:57.758Z,6.67
2023-04-15T08:26:59.871Z,7.27
2023-04-15T08:30:04.239Z,8.20
2023-04-15T08:33:06.416Z,10.95
2023-04-15T08:36:08.454Z,7.53
2023-04-15T08:39:10.001Z,7.68
2023-04-15T08:42:16.558Z,10.63
2023-04-15T08:45:18.597Z,7.25
2023-04-15T08:48:20.549Z,6.53
2023-04-15T08:51:26.543Z,6.10
2023-04-15T08:54:28.476Z,10.77
2023-04-15T08:57:30.062Z,7.63
2023-04-15T09:00:33.413Z,6.22
2023-04-15T09:03:35.238Z,6.97
2023-04-15T09:06:37.100Z,5.63
2023-04-15T09:09:40.205Z,6.00
2023-04-15T09:12:41.607Z,9.02
2023-04-15T09:15:43.019Z,6.57
2023-04-15T09:18:44.507Z,5.97
2023-04-15T09:21:48.228Z,6.97
2023-04-15T09:24:49.628Z,6.53
2023-04-15T09:27:56.826Z,6.97
2023-04-15T09:31:01.066Z,6.63
2023-04-15T09:34:02.903Z,7.25
2023-04-15T09:37:04.602Z,6.20
2023-04-15T09:40:06.716Z,6.65
2023-04-15T09:43:09.845Z,5.93
2023-04-15T09:46:11.645Z,6.90
2023-04-15T09:49:13.437Z,7.53
2023-04-15T09:52:14.972Z,7.95
2023-04-15T09:55:18.366Z,7.13
2023-04-15T09:58:33.734Z,6.97
2023-04-15T10:01:38.959Z,6.38
2023-04-15T10:04:42.091Z,6.05
2023-04-15T10:07:44.133Z,7.78
2023-04-15T10:10:47.274Z,7.32
2023-04-15T10:13:50.526Z,7.38
2023-04-15T10:16:56.455Z,6.55
2023-04-15T10:19:57.912Z,5.60
2023-04-15T10:22:59.538Z,6.22
2023-04-15T10:26:02.581Z,7.00
2023-04-15T10:29:05.046Z,6.07
2023-04-15T10:32:07.141Z,3.55
2023-04-15T10:38:32.879Z,4.03
2023-04-15T10:41:35.733Z,4.63
2023-04-15T10:44:41.535Z,5.47
2023-04-15T10:47:43.928Z,4.88
2023-04-15T10:50:56.453Z,6.25
2023-04-15T10:54:01.033Z,7.25
2023-04-15T10:57:08.687Z,4.80
2023-04-15T11:00:12.994Z,9.55
2023-04-15T11:03:14.839Z,5.93
2023-04-15T11:06:16.452Z,6.22
2023-04-15T11:09:33.766Z,7.10
2023-04-15T11:12:36.415Z,7.05
2023-04-15T11:15:43.002Z,6.43
2023-04-15T11:18:54.861Z,6.68
2023-04-15T11:21:56.806Z,8.57
2023-04-15T11:24:58.436Z,8.75
2023-04-15T11:28:01.905Z,6.07
2023-04-15T11:31:15.283Z,6.43
2023-04-15T11:34:24.009Z,7.07
2023-04-15T11:37:30.336Z,6.10
2023-04-15T11:40:33.433Z,6.35
2023-04-15T11:43:35.497Z,3.85
2023-04-15T11:46:37.318Z,7.97
2023-04-15T11:49:41.430Z,4.80
2023-04-15T11:53:01.316Z,4.82
2023-04-15T11:56:02.986Z,5.05
2023-04-15T11:59:04.540Z,5.72
2023-04-15T12:02:12.979Z,5.18
2023-04-15T12:05:14.684Z,4.25
2023-04-15T12:08:16.189Z,4.72
2023-04-15T12:11:18.342Z,5.25
2023-04-15T12:17:28.142Z,7.85
2023-04-15T12:20:31.284Z,5.95
2023-04-15T12:23:37.795Z,5.55
2023-04-15T12:26:53.624Z,18.33
2023-04-15T12:30:05.138Z,4.38
2023-04-15T12:33:06.770Z,6.50
2023-04-15T12:36:08.551Z,5.75
2023-04-15T12:39:10.360Z,5.07
2023-04-15T12:42:12.309Z,8.93
2023-04-15T12:45:13.986Z,5.25
2023-04-15T12:48:15.430Z,5.00
2023-04-15T12:51:16.838Z,6.93
2023-04-15T12:54:18.978Z,5.72
2023-04-15T13:00:21.989Z,6.97
2023-04-15T13:03:23.689Z,6.15
2023-04-15T13:09:27.111Z,4.38
2023-04-15T13:12:28.629Z,4.40
2023-04-15T13:15:30.141Z,6.72
2023-04-15T13:18:31.748Z,6.22
2023-04-15T13:21:35.703Z,5.43
2023-04-15T13:24:39.232Z,6.00
2023-04-15T13:27:40.735Z,5.65
2023-04-15T13:30:42.897Z,4.97
2023-04-15T13:36:48.524Z,7.50
2023-04-15T13:39:49.977Z,7.30
2023-04-15T13:42:52.054Z,6.50
2023-04-15T13:48:54.848Z,4.53
2023-04-15T13:51:56.294Z,6.07
2023-04-15T13:55:08.458Z,5.13
2023-04-15T13:58:19.112Z,6.55
2023-04-15T14:01:21.111Z,4.60
2023-04-15T14:04:22.714Z,5.78
2023-04-15T14:07:24.448Z,6.10
2023-04-15T14:10:25.859Z,7.15
2023-04-15T14:13:27.327Z,5.45
2023-04-15T14:16:28.841Z,7.65
2023-04-15T14:19:31.404Z,5.90
2023-04-15T14:22:32.812Z,5.97
2023-04-15T14:25:34.387Z,6.70
2023-04-15T14:28:38.207Z,5.30
2023-04-15T14:31:39.772Z,6.30
2023-04-15T14:34:42.978Z,7.60
2023-04-15T14:37:44.368Z,6.13
2023-04-15T14:40:45.876Z,10.15
2023-04-15T14:43:47.363Z,5.72
2023-04-15T14:46:48.816Z,6.03
2023-04-15T14:49:50.681Z,5.97
2023-04-15T14:52:52.109Z,7.18
2023-04-15T14:55:53.544Z,7.50
2023-04-15T14:58:54.966Z,8.65
2023-04-15T15:01:56.835Z,6.70
2023-04-15T15:04:59.272Z,7.25
2023-04-15T15:08:00.814Z,9.25
2023-04-15T15:11:02.265Z,9.02
2023-04-15T15:14:03.864Z,11.35
2023-04-15T15:17:05.273Z,6.25
2023-04-15T15:20:07.162Z,7.22
2023-04-15T15:23:08.606Z,6.35
2023-04-15T15:26:10.201Z,6.47
2023-04-15T15:29:11.628Z,7.18
2023-04-15T15:32:13.038Z,5.90
2023-04-15T15:35:14.563Z,7.57
2023-04-15T15:38:16.136Z,9.18
2023-04-15T15:41:17.638Z,6.50
2023-04-15T15:44:19.065Z,9.65
2023-04-15T15:47:22.116Z,8.27
2023-04-15T15:50:23.777Z,8.82
2023-04-15T15:53:25.908Z,7.30
2023-04-15T15:59:28.726Z,6.97
2023-04-15T16:02:59.802Z,8.43
2023-04-15T16:05:53.240Z,9.93
2023-04-15T16:08:54.894Z,7.38
2023-04-15T16:11:57.520Z,7.70
2023-04-15T16:14:59.015Z,7.78
2023-04-15T16:18:00.568Z,8.60
2023-04-15T16:21:02.045Z,7.85
2023-04-15T16:24:03.532Z,5.53
2023-04-15T16:27:04.943Z,6.82
2023-04-15T16:30:07.104Z,6.70
2023-04-15T16:33:09.443Z,4.35
2023-04-15T16:36:10.953Z,6.78
2023-04-15T16:39:12.639Z,6.22
2023-04-15T16:42:14.062Z,7.20
2023-04-15T16:45:15.793Z,5.85
2023-04-15T16:48:18.423Z,7.47
2023-04-15T16:51:19.861Z,9.57
2023-04-15T16:54:21.346Z,10.00
2023-04-15T16:57:22.768Z,13.10
2023-04-15T17:00:26.359Z,9.55
2023-04-15T17:03:27.848Z,9.65
2023-04-15T17:06:29.511Z,10.98
2023-04-15T17:09:31.128Z,7.47
2023-04-15T17:12:32.549Z,9.02
2023-04-15T17:15:34.032Z,7.90
2023-04-15T17:18:35.596Z,7.80
2023-04-15T17:21:37.018Z,10.93
2023-04-15T17:24:38.510Z,12.30
2023-04-15T17:27:40.157Z,11.07
2023-04-15T17:30:41.813Z,10.68
2023-04-15T17:34:00.444Z,9.57
2023-04-15T17:37:06.796Z,7.72
2023-04-15T17:40:08.880Z,8.20
2023-04-15T17:46:13.182Z,7.43
2023-04-15T17:49:15.071Z,8.93
2023-04-15T17:52:16.702Z,5.63
2023-04-15T17:55:18.149Z,6.85
2023-04-15T17:58:20.089Z,6.22
2023-04-15T18:01:22.315Z,3.95
2023-04-15T18:04:26.463Z,4.55
2023-04-15T18:07:28.344Z,5.38
2023-04-15T18:10:29.753Z,7.63
2023-04-15T18:13:31.190Z,7.73
2023-04-15T18:16:32.645Z,4.97
2023-04-15T18:19:34.190Z,7.68
2023-04-15T18:22:35.713Z,6.28
2023-04-15T18:25:38.420Z,5.25
2023-04-15T18:28:39.969Z,4.20
2023-04-15T18:31:41.507Z,3.65
2023-04-15T18:34:43.014Z,4.78
2023-04-15T18:37:44.477Z,4.65
2023-04-15T18:40:45.959Z,3.20
2023-04-15T18:43:47.389Z,4.13
2023-04-15T18:46:49.788Z,2.30
2023-04-15T18:49:51.718Z,5.43
2023-04-15T18:52:53.150Z,4.18
2023-04-15T18:55:56.180Z,4.47
2023-04-15T18:59:25.883Z,4.90
2023-04-15T19:02:19.464Z,4.90
2023-04-15T19:05:20.966Z,4.60
2023-04-15T19:08:22.573Z,4.10
2023-04-15T19:11:24.016Z,3.42
2023-04-15T19:14:25.680Z,3.77
2023-04-15T19:17:27.118Z,2.55
2023-04-15T19:20:28.631Z,4.32
2023-04-15T19:23:30.927Z,3.40
2023-04-15T19:29:33.724Z,2.63
2023-04-15T19:32:35.731Z,3.07
2023-04-15T19:35:38.172Z,2.47
2023-04-15T19:38:39.596Z,3.22
2023-04-15T19:41:41.032Z,3.30
2023-04-15T19:44:42.822Z,2.87
2023-04-15T19:47:44.504Z,2.95
2023-04-15T19:50:46.306Z,3.42
2023-04-15T19:53:49.523Z,2.75
2023-04-15T19:56:50.994Z,2.85
2023-04-15T19:59:52.461Z,3.87
2023-04-15T20:02:55.846Z,3.83
2023-04-15T20:05:57.427Z,4.60
2023-04-15T20:08:58.874Z,4.10
2023-04-15T20:12:46.625Z,5.57
2023-04-15T20:15:23.432Z,4.10
2023-04-15T20:18:24.999Z,4.10
2023-04-15T20:21:27.030Z,4.13
2023-04-15T20:24:28.444Z,4.05
2023-04-15T20:27:29.943Z,3.43
2023-04-15T20:30:31.383Z,3.53
2023-04-15T20:33:32.850Z,5.43
2023-04-15T20:36:34.332Z,4.73
2023-04-15T20:39:35.954Z,5.03
2023-04-15T20:42:37.941Z,5.15
2023-04-15T20:45:39.585Z,5.63
2023-04-15T20:48:41.014Z,5.45
2023-04-15T20:51:42.416Z,4.93
2023-04-15T20:54:44.185Z,5.77
2023-04-15T20:57:45.865Z,4.85
2023-04-15T21:00:47.370Z,5.80
2023-04-15T21:03:48.918Z,6.78
2023-04-15T21:06:51.948Z,5.70
2023-04-15T21:09:55.212Z,5.40
2023-04-15T21:12:56.644Z,5.00
2023-04-15T21:15:58.123Z,5.63
2023-04-15T21:18:59.617Z,4.93
2023-04-15T21:22:01.426Z,6.87
2023-04-15T21:25:03.257Z,5.27
2023-04-15T21:28:04.883Z,5.22
2023-04-15T21:31:06.519Z,6.03
2023-04-15T21:34:08.503Z,5.38
2023-04-15T21:37:10.022Z,6.50
2023-04-15T21:40:11.850Z,6.45
2023-04-15T21:43:13.241Z,9.73
2023-04-15T21:46:22.539Z,7.43
2023-04-15T21:49:26.477Z,7.10
2023-04-15T21:52:27.934Z,6.88
2023-04-15T21:55:29.327Z,7.07
2023-04-15T21:58:30.760Z,6.90
2023-04-15T22:01:32.204Z,6.43
2023-04-15T22:04:33.855Z,6.60
2023-04-15T22:07:36.261Z,7.55
2023-04-15T22:10:38.827Z,6.50
2023-04-15T22:13:40.878Z,7.15
2023-04-15T22:16:42.472Z,6.97
2023-04-15T22:19:45.184Z,8.55
2023-04-15T22:22:46.613Z,8.50
2023-04-15T22:25:48.184Z,7.87
2023-04-15T22:28:49.716Z,8.23
2023-04-15T22:31:51.500Z,8.33
2023-04-15T22:34:52.973Z,10.02
2023-04-15T22:37:54.493Z,10.10
2023-04-15T22:40:55.964Z,9.18
2023-04-15T22:43:57.396Z,10.47
2023-04-15T22:46:58.829Z,10.57
2023-04-15T22:50:00.265Z,10.83
2023-04-15T22:53:01.700Z,10.83
2023-04-15T22:56:03.134Z,11.90
2023-04-15T22:59:04.650Z,12.50
2023-04-15T23:02:07.082Z,12.70
2023-04-15T23:05:11.988Z,12.45
2023-04-15T23:08:14.633Z,13.02
2023-04-15T23:11:16.220Z,12.13
2023-04-15T23:14:17.666Z,15.98
2023-04-15T23:17:19.150Z,16.87
2023-04-15T23:20:20.618Z,17.30
2023-04-15T23:23:22.111Z,16.67
2023-04-15T23:26:23.568Z,17.30
2023-04-15T23:29:25.011Z,19.97
2023-04-15T23:32:27.447Z,18.53
2023-04-15T23:35:28.914Z,19.60
2023-04-15T23:38:30.362Z,20.60
2023-04-15T23:41:31.804Z,21.37
2023-04-15T23:44:33.270Z,19.93
2023-04-15T23:47:34.719Z,21.63
2023-04-15T23:50:36.152Z,21.00
2023-04-15T23:53:37.573Z,21.52
2023-04-15T23:56:38.948Z,21.37
2023-04-15T23:59:40.419Z,21.35
